Time;durP1;ratioP1;P1;durP2;ratioP2;P2;SDS_P1;SDS_P2;PMS_P1;PMS_P2;Temp;Humidity;BMP_temperature;BMP_pressure;BME280_temperature;BME280_humidity;BME280_pressure;Samples;Min_cycle;Max_cycle;Signal;HPM_P1;HPM_P2
2024/01/10 00:00:52;;;;;;;19.20;10.07;;;;;;;-1.22;41.29;101451.34;7778678;32;40764;-79
2024/01/10 00:05:08;;;;;;;17.67;9.82;;;;;;;-1.16;42.06;101452.56;7767070;32;38704;-79
2024/01/10 00:09:24;;;;;;;15.25;9.32;;;;;;;-1.36;42.51;101443.87;7792868;32;37151;-79
2024/01/10 00:13:41;;;;;;;17.73;9.50;;;;;;;-1.33;42.47;101448.91;7785310;32;39044;-78
2024/01/10 00:17:57;;;;;;;13.50;8.18;;;;;;;-1.41;42.14;101455.03;7764843;32;40591;-77
2024/01/10 00:22:13;;;;;;;12.07;7.65;;;;;;;-1.28;41.73;101469.84;7770747;32;38651;-78
2024/01/10 00:26:30;;;;;;;14.32;8.90;;;;;;;-1.54;42.02;101467.94;7766116;32;37094;-78
2024/01/10 00:30:48;;;;;;;15.60;8.77;;;;;;;-1.27;41.78;101461.69;7765150;32;39395;-79
2024/01/10 00:35:04;;;;;;;16.75;8.68;;;;;;;-1.29;42.21;101465.50;7765222;32;40019;-79
2024/01/10 00:39:21;;;;;;;13.10;8.43;;;;;;;-1.34;42.76;101458.78;7765572;32;37734;-79
2024/01/10 00:43:37;;;;;;;15.23;7.95;;;;;;;-1.51;43.57;101459.59;7764034;32;37675;-79
2024/01/10 00:47:53;;;;;;;15.57;9.00;;;;;;;-1.54;43.87;101463.41;7764160;32;40085;-79
2024/01/10 00:52:10;;;;;;;18.73;8.80;;;;;;;-1.40;43.68;101474.59;7764970;32;40024;-79
2024/01/10 00:56:26;;;;;;;14.38;8.18;;;;;;;-1.79;43.74;101478.38;7764132;32;37922;-78
2024/01/10 01:00:42;;;;;;;16.08;7.72;;;;;;;-1.63;42.66;101468.84;7769153;32;37274;-78
2024/01/10 01:04:58;;;;;;;12.13;7.40;;;;;;;-1.57;42.11;101477.13;7787023;32;39312;-79
2024/01/10 01:09:15;;;;;;;10.25;6.90;;;;;;;-1.72;41.77;101481.28;7764927;32;39726;-78
2024/01/10 01:13:31;;;;;;;11.20;6.85;;;;;;;-1.73;41.03;101475.06;7764938;32;37864;-79
2024/01/10 01:17:48;;;;;;;10.55;7.05;;;;;;;-1.61;40.84;101475.72;7765440;32;37967;-79
2024/01/10 01:22:04;;;;;;;15.73;7.50;;;;;;;-1.81;41.27;101482.16;7764975;32;39388;-79
2024/01/10 01:26:23;;;;;;;11.90;6.90;;;;;;;-1.71;41.65;101469.59;7764706;32;40889;-79
2024/01/10 01:30:40;;;;;;;11.88;7.20;;;;;;;-1.70;41.82;101472.09;7765084;32;38656;-78
2024/01/10 01:34:56;;;;;;;11.30;7.30;;;;;;;-1.72;42.16;101467.91;7790362;32;37152;-79
2024/01/10 01:39:13;;;;;;;11.90;7.53;;;;;;;-1.81;42.08;101466.97;7791104;32;38967;-79
2024/01/10 01:43:30;;;;;;;10.90;7.22;;;;;;;-1.92;41.78;101468.00;7791191;32;40085;-78
2024/01/10 01:47:46;;;;;;;10.82;6.12;;;;;;;-2.04;41.45;101471.88;7788966;32;38000;-79
2024/01/10 01:52:02;;;;;;;7.70;6.05;;;;;;;-1.98;41.54;101478.47;7768745;32;38084;-79
2024/01/10 01:56:19;;;;;;;8.85;6.00;;;;;;;-1.99;41.04;101472.28;7763158;32;39061;-78
2024/01/10 02:00:35;;;;;;;10.40;6.35;;;;;;;-2.03;40.98;101470.91;7786320;32;39997;-79
2024/01/10 02:04:51;;;;;;;11.27;6.78;;;;;;;-2.19;40.58;101459.97;7780991;32;37994;-79
2024/01/10 02:09:08;;;;;;;11.02;7.15;;;;;;;-2.08;40.88;101470.50;7771542;32;37199;-79
2024/01/10 02:13:25;;;;;;;10.02;7.05;;;;;;;-2.24;41.37;101462.25;7763521;32;39256;-79
2024/01/10 02:17:41;;;;;;;14.30;7.45;;;;;;;-2.00;40.78;101464.41;7764572;32;40486;-79
2024/01/10 02:21:57;;;;;;;10.75;6.95;;;;;;;-2.11;40.39;101468.09;7789742;32;38002;-79
2024/01/10 02:26:15;;;;;;;13.98;7.65;;;;;;;-2.10;40.92;101462.62;7771035;32;37919;-79
2024/01/10 02:30:31;;;;;;;11.98;7.78;;;;;;;-2.51;42.11;101474.59;7779767;32;39803;-79
2024/01/10 02:34:47;;;;;;;14.55;7.82;;;;;;;-2.24;42.21;101467.59;8003544;26;40637;-81
2024/01/10 02:39:04;;;;;;;12.27;6.97;;;;;;;-2.21;42.27;101469.97;7735650;32;38055;-79
2024/01/10 02:43:20;;;;;;;14.40;7.80;;;;;;;-2.23;42.81;101469.28;7711817;32;37120;-82
2024/01/10 02:47:37;;;;;;;11.27;7.12;;;;;;;-2.13;42.45;101475.44;7736007;32;40128;-82
2024/01/10 02:51:53;;;;;;;14.65;7.78;;;;;;;-2.25;42.69;101476.63;7735399;32;39782;-81
2024/01/10 02:56:10;;;;;;;14.27;7.72;;;;;;;-2.73;43.96;101473.91;7735627;32;37979;-83
2024/01/10 03:00:26;;;;;;;12.88;7.78;;;;;;;-2.47;44.25;101470.63;7735198;32;38046;-83
2024/01/10 03:04:44;;;;;;;13.00;8.00;;;;;;;-2.43;44.09;101463.16;7735375;32;39251;-81
2024/01/10 03:09:00;;;;;;;13.38;8.30;;;;;;;-2.45;43.77;101476.66;7735236;32;39939;-82
2024/01/10 03:13:16;;;;;;;15.95;8.10;;;;;;;-2.63;44.32;101468.56;7735273;32;37914;-82
2024/01/10 03:17:33;;;;;;;15.73;7.90;;;;;;;-2.51;44.29;101463.91;7735769;32;37819;-83
2024/01/10 03:21:50;;;;;;;12.50;8.20;;;;;;;-2.58;44.56;101465.47;7739363;32;39392;-82
2024/01/10 03:26:06;;;;;;;15.25;8.57;;;;;;;-2.52;44.88;101449.72;7739185;32;40741;-82
2024/01/10 03:30:24;;;;;;;14.50;7.65;;;;;;;-2.65;45.68;101450.03;7738503;32;37525;-83
2024/01/10 03:34:42;;;;;;;11.45;7.85;;;;;;;-2.80;46.38;101446.13;7738832;32;37097;-82
2024/01/10 03:38:58;;;;;;;15.25;8.27;;;;;;;-2.83;46.38;101451.75;7738685;32;39225;-82
2024/01/10 03:43:16;;;;;;;13.00;8.27;;;;;;;-2.60;45.83;101451.41;7737210;32;40786;-81
2024/01/10 03:47:32;;;;;;;11.93;7.53;;;;;;;-2.53;45.47;101437.34;7734794;32;38702;-82
2024/01/10 03:51:49;;;;;;;14.02;8.75;;;;;;;-2.55;45.26;101444.66;7738316;32;37545;-82
2024/01/10 03:56:06;;;;;;;12.57;7.93;;;;;;;-2.69;45.04;101447.78;7737555;32;39088;-82
2024/01/10 04:00:22;;;;;;;18.48;8.68;;;;;;;-2.84;44.96;101450.91;7738591;32;40026;-82
2024/01/10 04:04:38;;;;;;;13.62;8.27;;;;;;;-2.64;44.32;101456.19;7738356;32;38003;-82
2024/01/10 04:08:55;;;;;;;12.27;8.23;;;;;;;-3.05;45.15;101459.09;7738263;32;37112;-82
2024/01/10 04:13:11;;;;;;;11.23;7.40;;;;;;;-2.71;45.10;101447.94;7738151;32;39143;-82
2024/01/10 04:17:27;;;;;;;11.85;7.87;;;;;;;-2.83;45.57;101449.06;7738483;32;39760;-82
2024/01/10 04:21:43;;;;;;;12.25;7.68;;;;;;;-2.84;45.25;101452.75;7738228;32;37922;-81
2024/01/10 04:26:01;;;;;;;13.10;7.93;;;;;;;-3.05;45.12;101451.09;7738123;32;37787;-81
2024/01/10 04:30:17;;;;;;;12.60;7.78;;;;;;;-3.17;44.67;101449.56;7735918;32;39547;-82
2024/01/10 04:34:34;;;;;;;14.23;8.05;;;;;;;-3.64;46.13;101463.56;7737883;32;39931;-81
2024/01/10 04:38:50;;;;;;;14.75;8.40;;;;;;;-3.44;45.61;101464.41;7724167;32;37854;-82
2024/01/10 04:43:06;;;;;;;16.20;10.27;;;;;;;-3.30;43.97;101470.31;7737979;32;37306;-83
2024/01/10 04:47:22;;;;;;;21.98;15.35;;;;;;;-3.13;43.82;101477.63;7737548;32;39409;-82
2024/01/10 04:51:39;;;;;;;18.45;9.50;;;;;;;-2.99;44.34;101475.53;7737706;32;40788;-82
2024/01/10 04:55:55;;;;;;;14.18;8.50;;;;;;;-2.92;44.33;101476.63;7737489;32;38928;-81
2024/01/10 05:00:12;;;;;;;11.30;8.00;;;;;;;-2.95;44.40;101482.25;7737033;32;37855;-82
2024/01/10 05:04:28;;;;;;;15.95;8.95;;;;;;;-3.03;44.79;101483.81;7736504;32;37920;-82
2024/01/10 05:08:44;;;;;;;14.18;8.23;;;;;;;-2.99;44.83;101478.19;7736728;32;40800;-82
2024/01/10 05:13:00;;;;;;;13.30;7.80;;;;;;;-3.08;44.97;101487.87;7735954;32;37948;-81
2024/01/10 05:17:17;;;;;;;11.35;8.52;;;;;;;-3.15;44.88;101481.44;7737334;32;37672;-82
2024/01/10 05:21:33;;;;;;;13.60;8.57;;;;;;;-3.33;45.71;101479.44;7737117;32;39105;-81
2024/01/10 05:25:49;;;;;;;13.43;8.00;;;;;;;-3.00;45.47;101481.81;7736871;32;39975;-81
2024/01/10 05:30:07;;;;;;;16.30;7.18;;;;;;;-2.99;44.44;101475.53;7736620;32;38648;-81
2024/01/10 05:34:23;;;;;;;11.50;7.22;;;;;;;-3.20;44.81;101479.19;7722206;32;36925;-80
2024/01/10 05:38:42;;;;;;;12.45;7.93;;;;;;;-3.08;44.38;101479.88;7736339;32;40089;-81
2024/01/10 05:42:59;;;;;;;17.52;7.80;;;;;;;-3.45;45.16;101478.75;7735156;32;40003;-81
2024/01/10 05:47:15;;;;;;;12.10;7.22;;;;;;;-3.55;45.51;101475.22;7736479;32;38491;-81
2024/01/10 05:51:32;;;;;;;10.75;7.30;;;;;;;-3.89;46.09;101475.56;7735626;32;36959;-81
2024/01/10 05:55:49;;;;;;;10.50;6.60;;;;;;;-3.71;45.56;101466.91;7735310;32;39115;-82
2024/01/10 06:00:09;;;;;;;13.23;7.78;;;;;;;-3.63;43.94;101469.72;7736042;32;39769;-81
2024/01/10 06:04:27;;;;;;;11.27;7.22;;;;;;;-3.50;43.57;101467.66;7735662;32;37922;-81
2024/01/10 06:08:44;;;;;;;12.98;8.02;;;;;;;-3.30;43.62;101460.50;7735550;32;37828;-81
2024/01/10 06:13:00;;;;;;;13.20;8.35;;;;;;;-3.32;43.81;101464.28;7734943;32;38095;-82
2024/01/10 06:17:16;;;;;;;12.15;8.10;;;;;;;-3.24;43.74;101464.44;7736208;32;39984;-81
2024/01/10 06:21:33;;;;;;;11.80;7.62;;;;;;;-3.22;43.77;101473.16;7735770;32;37823;-81
2024/01/10 06:25:49;;;;;;;12.15;7.45;;;;;;;-3.38;44.44;101471.03;7736140;32;36915;-81
2024/01/10 06:30:07;;;;;;;12.88;7.90;;;;;;;-3.10;44.36;101469.34;7736092;32;39303;-80
2024/01/10 06:34:24;;;;;;;11.32;7.75;;;;;;;-3.37;45.13;101478.03;7736546;32;37880;-78
2024/01/10 06:38:40;;;;;;;13.55;7.87;;;;;;;-3.06;44.50;101478.75;7736340;32;37938;-80
2024/01/10 06:42:56;;;;;;;12.95;8.52;;;;;;;-3.27;45.07;101494.91;7722532;32;37081;-78
2024/01/10 06:47:14;;;;;;;10.20;6.78;;;;;;;-3.31;44.66;101489.97;7736296;32;39121;-80
2024/01/10 06:51:31;;;;;;;9.15;6.45;;;;;;;-3.02;44.10;101490.84;7736121;32;39923;-81
2024/01/10 06:55:48;;;;;;;12.77;7.28;;;;;;;-3.12;43.63;101494.47;7739622;32;38457;-80
2024/01/10 07:00:07;;;;;;;8.48;6.32;;;;;;;-3.23;43.43;101500.78;7739746;32;37247;-81
2024/01/10 07:04:23;;;;;;;11.50;7.25;;;;;;;-3.21;43.17;101493.47;7739823;32;39883;-80
2024/01/10 07:08:42;;;;;;;13.85;7.60;;;;;;;-3.35;43.80;101497.41;7739389;32;40726;-79
2024/01/10 07:12:58;;;;;;;10.98;7.60;;;;;;;-3.17;44.39;101489.56;7739367;32;37982;-79
2024/01/10 07:17:14;;;;;;;11.50;7.03;;;;;;;-3.14;45.33;101497.31;7739475;32;37954;-79
2024/01/10 07:21:31;;;;;;;10.45;6.87;;;;;;;-3.05;46.81;101490.28;7739490;32;39256;-80
2024/01/10 07:25:47;;;;;;;14.52;6.85;;;;;;;-2.89;46.48;101489.69;7738987;32;39823;-80
2024/01/10 07:30:16;;;;;;;10.73;8.23;;;;;;;-2.90;44.92;101493.34;7739045;32;37872;-79
2024/01/10 07:34:32;;;;;;;12.77;7.62;;;;;;;-3.90;51.75;101503.19;7738677;32;37147;-79
2024/01/10 07:38:49;;;;;;;10.70;7.55;;;;;;;-3.17;50.47;101499.38;7738758;32;39283;-79
2024/01/10 07:43:05;;;;;;;12.63;8.38;;;;;;;-3.17;50.01;101510.06;7739667;32;39398;-81
2024/01/10 07:47:21;;;;;;;12.50;7.75;;;;;;;-3.12;50.52;101506.00;7739138;32;37839;-81
2024/01/10 07:51:37;;;;;;;13.20;7.57;;;;;;;-2.93;49.25;101509.62;7738756;32;37112;-81
2024/01/10 07:55:54;;;;;;;16.15;7.85;;;;;;;-2.88;46.90;101512.72;7739002;32;40065;-79
2024/01/10 08:00:10;;;;;;;14.57;8.20;;;;;;;-2.40;47.61;101513.62;7739065;32;39959;-80
2024/01/10 08:04:27;;;;;;;12.32;7.75;;;;;;;-2.60;47.42;101512.81;7738801;32;38511;-79
2024/01/10 08:08:43;;;;;;;11.15;7.43;;;;;;;-1.90;45.70;101511.50;7724912;32;36989;-78
2024/01/10 08:13:00;;;;;;;11.63;7.10;;;;;;;-1.71;44.37;101507.03;7738753;32;39262;-79
2024/01/10 08:17:16;;;;;;;12.75;7.65;;;;;;;-1.89;47.68;101504.31;7738969;32;38842;-79
2024/01/10 08:21:32;;;;;;;13.20;7.90;;;;;;;-1.93;47.78;101508.28;7738813;32;38650;-80
2024/01/10 08:25:48;;;;;;;12.27;8.48;;;;;;;-1.61;47.36;101513.16;7738759;32;37106;-79
2024/01/10 08:30:05;;;;;;;14.77;8.32;;;;;;;-1.88;49.05;101516.66;7738659;32;39871;-79
2024/01/10 08:34:22;;;;;;;16.12;9.32;;;;;;;-1.78;48.83;101513.97;7737541;32;40875;-79
2024/01/10 08:38:39;;;;;;;12.95;8.95;;;;;;;-2.06;49.49;101532.66;7738518;32;37847;-78
2024/01/10 08:42:55;;;;;;;17.90;10.07;;;;;;;-1.97;49.89;101523.75;7738209;32;36958;-78
2024/01/10 08:47:11;;;;;;;17.27;9.45;;;;;;;-1.84;49.66;101527.94;7738510;32;39928;-79
2024/01/10 08:51:27;;;;;;;15.07;8.95;;;;;;;-1.25;48.63;101531.94;7737851;32;40436;-79
2024/01/10 08:55:44;;;;;;;18.23;9.85;;;;;;;-0.64;45.81;101526.78;7737987;32;38628;-79
2024/01/10 09:00:00;;;;;;;15.38;9.13;;;;;;;-0.60;44.09;101536.22;7738260;32;37187;-79
2024/01/10 09:04:16;;;;;;;14.20;8.90;;;;;;;-0.35;42.34;101520.31;7750266;32;40024;-80
2024/01/10 09:08:32;;;;;;;15.50;8.98;;;;;;;0.22;42.34;101517.91;7749753;32;39936;-79
2024/01/10 09:12:49;;;;;;;15.63;8.73;;;;;;;0.21;42.21;101518.94;7736502;32;37836;-79
2024/01/10 09:17:07;;;;;;;18.55;10.35;;;;;;;0.76;41.35;101509.53;7742397;32;38641;-79
2024/01/10 09:21:25;;;;;;;17.75;9.80;;;;;;;0.17;42.94;101509.50;7748420;32;39069;-79
2024/01/10 09:25:41;;;;;;;22.87;9.52;;;;;;;0.53;40.76;101503.94;7713336;32;40613;-80
2024/01/10 09:29:58;;;;;;;13.98;7.97;;;;;;;1.27;40.89;101501.34;7728714;32;37981;-78
2024/01/10 09:34:14;;;;;;;16.65;8.93;;;;;;;1.38;41.19;101498.31;7750735;32;37895;-79
2024/01/10 09:38:34;;;;;;;16.12;9.65;;;;;;;1.45;41.14;101493.94;7746167;32;39396;-79
2024/01/10 09:42:54;;;;;;;16.20;9.93;;;;;;;1.61;41.00;101492.25;7744082;32;40755;-84
2024/01/10 09:47:11;;;;;;;14.27;8.98;;;;;;;2.01;40.42;101477.00;7737468;32;36090;-81
2024/01/10 09:51:28;;;;;;;16.30;9.32;;;;;;;1.88;40.24;101474.88;7737168;32;36824;-80
2024/01/10 09:55:45;;;;;;;17.75;9.85;;;;;;;1.58;40.63;101479.12;7737598;32;40174;-81
2024/01/10 10:00:04;;;;;;;22.90;10.88;;;;;;;2.26;39.97;101466.97;7737376;32;39950;-81
2024/01/10 10:04:22;;;;;;;24.30;11.50;;;;;;;2.73;39.17;101459.78;7737157;32;37834;-81
2024/01/10 10:08:39;;;;;;;16.92;9.75;;;;;;;2.76;38.67;101459.41;7737166;32;37243;-81
2024/01/10 10:12:56;;;;;;;22.42;10.02;;;;;;;3.28;37.51;101447.88;7737184;32;40131;-81
2024/01/10 10:17:17;;;;;;;14.75;8.57;;;;;;;3.89;35.49;101441.50;7737059;32;40026;-81
2024/01/10 10:25:49;;;;;;;16.65;10.38;;;;;;;3.36;38.98;101433.47;7834551;32;209294;-77
2024/01/10 10:30:09;;;;;;;18.10;10.68;;;;;;;3.36;38.98;101433.47;7798643;32;40437;-76
2024/01/10 10:34:30;;;;;;;21.65;12.45;;;;;;;3.44;40.37;101432.56;7812611;32;37880;-77
2024/01/10 10:38:49;;;;;;;22.10;13.82;;;;;;;3.11;37.61;101435.56;7797328;32;37688;-77
2024/01/10 10:43:11;;;;;;;17.67;10.48;;;;;;;3.48;36.00;101432.00;7798945;32;39470;-84
2024/01/10 10:47:32;;;;;;;14.80;7.87;;;;;;;4.19;31.21;101434.19;7799200;32;40802;-83
2024/01/10 10:51:48;;;;;;;14.25;8.40;;;;;;;5.02;29.04;101423.00;7797699;32;38690;-83
2024/01/10 10:56:05;;;;;;;12.77;7.43;;;;;;;5.44;29.64;101411.22;7778161;32;37815;-80
2024/01/10 11:00:26;;;;;;;17.80;7.87;;;;;;;5.71;28.45;101405.12;7785247;32;40671;-81
2024/01/10 11:04:43;;;;;;;17.12;8.38;;;;;;;5.68;28.37;101395.56;7785068;32;40866;-81
2024/01/10 11:09:12;;;;;;;15.32;8.10;;;;;;;5.53;28.36;101408.38;7784920;32;37973;-83
2024/01/10 11:13:49;;;;;;;16.02;8.40;;;;;;;5.95;28.23;101395.66;7775093;32;37019;-82
2024/01/10 11:18:29;;;;;;;13.55;7.65;;;;;;;5.95;28.05;101385.69;7796827;32;39997;-80
2024/01/10 11:23:27;;;;;;;15.32;8.27;;;;;;;5.59;29.30;101386.78;7791163;32;40888;-80
2024/01/10 11:27:43;;;;;;;15.15;9.02;;;;;;;4.96;30.03;101381.34;7772440;32;38382;-80
2024/01/10 11:31:59;;;;;;;19.17;10.10;;;;;;;5.17;30.80;101377.75;7790463;32;37082;-81
2024/01/10 11:36:19;;;;;;;18.90;10.25;;;;;;;5.99;30.12;101372.63;7775134;32;39096;-82
2024/01/10 11:40:48;;;;;;;22.62;12.18;;;;;;;5.96;29.77;101360.31;7778652;32;38851;-82
2024/01/10 11:45:05;;;;;;;23.17;11.30;;;;;;;5.93;30.49;101359.84;7777213;32;37950;-83
2024/01/10 11:49:24;;;;;;;25.85;12.23;;;;;;;5.37;29.97;101358.13;7777178;32;37466;-84
2024/01/10 11:53:42;;;;;;;30.10;12.55;;;;;;;5.62;30.21;101353.06;7776128;32;39306;-82
2024/01/10 11:58:17;;;;;;;22.10;11.50;;;;;;;6.61;29.19;101348.19;7780196;32;40678;-83
2024/01/10 12:02:34;;;;;;;24.00;11.43;;;;;;;6.82;28.02;101336.28;7766198;32;38273;-83
2024/01/10 12:06:50;;;;;;;20.42;10.90;;;;;;;6.95;27.21;101341.69;7775406;32;36677;-82
2024/01/10 12:11:08;;;;;;;19.40;10.85;;;;;;;7.21;26.43;101342.69;7780760;32;39660;-81
2024/01/10 12:15:25;;;;;;;22.73;11.57;;;;;;;7.62;26.05;101336.97;7782253;32;40114;-79
2024/01/10 12:19:44;;;;;;;19.42;9.82;;;;;;;8.75;24.74;101323.78;7780628;32;37691;-80
2024/01/10 12:24:08;;;;;;;16.92;9.90;;;;;;;9.16;24.52;101319.66;7763843;32;37415;-83
2024/01/10 12:28:24;;;;;;;15.65;8.05;;;;;;;9.12;24.88;101316.50;7789207;32;39096;-83
2024/01/10 12:32:42;;;;;;;13.62;7.25;;;;;;;9.40;25.04;101320.66;7781324;32;41241;-83
2024/01/10 12:37:00;;;;;;;17.23;8.25;;;;;;;9.81;24.63;101313.62;7765497;32;39483;-83
2024/01/10 12:41:17;;;;;;;16.15;8.82;;;;;;;10.31;24.42;101310.69;7772792;32;36004;-85
2024/01/10 12:45:34;;;;;;;17.90;9.00;;;;;;;10.39;22.96;101304.06;7791956;32;39107;-82
2024/01/10 12:49:50;;;;;;;18.23;9.25;;;;;;;10.12;22.98;101306.31;7792751;32;39936;-84
2024/01/10 12:54:08;;;;;;;20.77;10.35;;;;;;;10.73;22.40;101303.50;7792655;32;37909;-83
2024/01/10 12:58:24;;;;;;;14.70;8.70;;;;;;;10.59;23.26;101305.63;7792651;32;37640;-85
2024/01/10 13:02:40;;;;;;;17.10;8.88;;;;;;;10.80;22.70;101301.50;7787657;32;39042;-83
2024/01/10 13:06:56;;;;;;;17.58;8.85;;;;;;;10.85;22.19;101288.81;7765236;32;40021;-83
2024/01/10 13:11:14;;;;;;;16.17;8.70;;;;;;;10.69;22.40;101297.69;7765288;32;37912;-83
2024/01/10 13:15:30;;;;;;;16.52;8.73;;;;;;;11.00;22.24;101301.97;7762337;32;36946;-84
2024/01/10 13:19:48;;;;;;;15.18;7.80;;;;;;;11.57;22.42;101293.12;7763438;32;38827;-82
2024/01/10 13:24:05;;;;;;;18.12;9.57;;;;;;;12.25;21.38;101278.84;7750649;32;38900;-83
2024/01/10 13:28:21;;;;;;;15.68;8.77;;;;;;;12.24;21.64;101275.28;7765050;32;37984;-82
2024/01/10 13:32:38;;;;;;;14.77;8.13;;;;;;;12.57;22.40;101268.16;7765112;32;37720;-82
2024/01/10 13:36:55;;;;;;;17.23;9.25;;;;;;;13.08;20.24;101260.72;7751113;32;39525;-82
2024/01/10 13:41:11;;;;;;;15.48;8.52;;;;;;;12.66;20.84;101274.88;7765025;32;40818;-83
2024/01/10 13:45:28;;;;;;;16.15;9.30;;;;;;;13.39;20.26;101263.91;7764820;32;38014;-83
2024/01/10 13:49:44;;;;;;;20.80;10.77;;;;;;;14.70;19.14;101263.03;7764977;32;36812;-84
2024/01/10 13:54:00;;;;;;;19.12;11.63;;;;;;;17.19;16.54;101246.50;7764820;32;39191;-84
2024/01/10 13:58:18;;;;;;;14.57;7.75;;;;;;;20.03;13.96;101242.84;7764253;32;40029;-83
2024/01/10 14:02:35;;;;;;;15.18;8.60;;;;;;;21.41;12.35;101235.97;7764463;32;38881;-81
2024/01/10 14:06:52;;;;;;;16.58;9.23;;;;;;;22.57;11.59;101233.53;7750751;32;36920;-82
2024/01/10 14:11:08;;;;;;;17.00;8.05;;;;;;;23.13;11.03;101228.44;7750675;32;39067;-80
2024/01/10 14:15:24;;;;;;;12.65;7.72;;;;;;;23.55;10.79;101220.50;7750482;32;40013;-80
2024/01/10 14:19:41;;;;;;;14.77;7.50;;;;;;;23.28;10.73;101223.56;7764221;32;37892;-80
2024/01/10 14:23:57;;;;;;;13.10;7.55;;;;;;;23.39;10.67;101228.50;7763993;32;36609;-80
2024/01/10 14:28:13;;;;;;;13.15;8.18;;;;;;;23.46;10.68;101230.81;7764030;32;39294;-80
2024/01/10 14:32:32;;;;;;;13.77;8.32;;;;;;;24.44;9.99;101220.19;7763929;32;40008;-80
2024/01/10 14:36:50;;;;;;;12.75;7.65;;;;;;;24.63;9.99;101222.63;7763471;32;38880;-80
2024/01/10 14:41:07;;;;;;;13.38;7.60;;;;;;;24.51;9.74;101228.03;7749880;32;37666;-81
2024/01/10 14:45:24;;;;;;;15.88;8.60;;;;;;;23.18;10.67;101238.56;7763758;32;39137;-80
2024/01/10 14:49:41;;;;;;;14.93;8.82;;;;;;;21.61;11.67;101235.53;7763636;32;40282;-79
2024/01/10 14:53:57;;;;;;;16.70;7.60;;;;;;;19.97;12.78;101238.50;7763326;32;37610;-83
2024/01/10 14:58:14;;;;;;;13.60;7.53;;;;;;;18.82;13.95;101250.41;7763269;32;37780;-82
2024/01/10 15:02:30;;;;;;;16.85;8.20;;;;;;;16.58;15.41;101263.13;7763188;32;39275;-82
2024/01/10 15:06:47;;;;;;;17.08;8.85;;;;;;;13.85;18.70;101269.91;7762962;32;40965;-82
2024/01/10 15:11:06;;;;;;;17.30;9.52;;;;;;;12.17;20.83;101285.53;7765451;32;37898;-82
2024/01/10 15:15:22;;;;;;;20.73;10.25;;;;;;;10.38;22.70;101287.94;7766795;32;37006;-81
2024/01/10 15:19:38;;;;;;;23.10;12.68;;;;;;;9.18;24.55;101288.41;7766626;32;39098;-83
2024/01/10 15:23:55;;;;;;;49.35;18.52;;;;;;;8.21;26.19;101299.69;7766502;32;39670;-81
2024/01/10 15:28:12;;;;;;;32.15;13.95;;;;;;;7.39;27.68;101296.75;7766652;32;37927;-81
2024/01/10 15:32:29;;;;;;;32.75;14.55;;;;;;;7.07;27.46;101296.62;7766508;32;37902;-82
2024/01/10 15:36:46;;;;;;;22.02;11.52;;;;;;;6.75;28.27;101298.34;7766540;32;38839;-81
2024/01/10 15:41:02;;;;;;;21.67;10.40;;;;;;;6.22;28.35;101299.13;7766413;32;40896;-82
2024/01/10 15:45:19;;;;;;;16.02;9.52;;;;;;;6.09;28.45;101304.53;7766253;32;38193;-81
2024/01/10 15:49:35;;;;;;;17.70;9.95;;;;;;;5.65;29.00;101302.06;7766435;32;37586;-81
2024/01/10 15:53:56;;;;;;;20.80;11.30;;;;;;;5.33;29.97;101302.75;7766447;32;39463;-81
2024/01/10 15:58:12;;;;;;;22.55;11.07;;;;;;;4.70;31.83;101300.91;7766333;32;39761;-80
2024/01/10 16:02:30;;;;;;;20.77;11.40;;;;;;;4.68;32.07;101298.41;7766082;32;38750;-82
2024/01/10 16:06:46;;;;;;;21.85;12.20;;;;;;;4.33;33.95;101297.50;7766110;32;36197;-81
2024/01/10 16:11:03;;;;;;;25.05;12.20;;;;;;;3.85;35.37;101314.22;7765965;32;39120;-81
2024/01/10 16:15:19;;;;;;;33.08;14.45;;;;;;;3.68;36.51;101313.59;7765975;32;40551;-81
2024/01/10 16:19:35;;;;;;;26.27;13.93;;;;;;;3.68;36.97;101312.78;7765818;32;37722;-80
2024/01/10 16:23:52;;;;;;;29.25;15.60;;;;;;;3.56;37.29;101305.16;7765803;32;37172;-80
2024/01/10 16:28:08;;;;;;;30.83;15.70;;;;;;;3.51;37.24;101306.75;7765883;32;39880;-82
2024/01/10 16:32:24;;;;;;;32.97;16.73;;;;;;;3.30;38.10;101308.34;7765757;32;39918;-81
2024/01/10 16:36:40;;;;;;;29.60;14.77;;;;;;;3.35;38.14;101305.94;7765625;32;38762;-80
2024/01/10 16:40:57;;;;;;;25.65;14.35;;;;;;;3.28;38.79;101313.09;7765793;32;37224;-80
2024/01/10 16:45:13;;;;;;;36.65;17.67;;;;;;;3.13;39.15;101317.66;7765532;32;40000;-80
2024/01/10 16:49:30;;;;;;;31.73;15.80;;;;;;;2.71;40.58;101314.53;7765554;32;40952;-80
2024/01/10 16:53:46;;;;;;;25.45;14.30;;;;;;;2.67;41.30;101323.16;7765528;32;38707;-80
2024/01/10 16:58:03;;;;;;;26.48;13.55;;;;;;;2.56;41.61;101322.56;7765622;32;37095;-81
2024/01/10 17:02:19;;;;;;;20.08;12.05;;;;;;;2.35;41.83;101311.66;7765583;32;38923;-81
2024/01/10 17:06:36;;;;;;;26.37;13.35;;;;;;;2.14;41.91;101325.75;7765369;32;40921;-81
2024/01/10 17:10:52;;;;;;;27.83;14.23;;;;;;;2.43;40.89;101319.62;7765289;32;38879;-80
2024/01/10 17:15:09;;;;;;;26.50;13.52;;;;;;;2.24;41.05;101323.66;7765383;32;37127;-81
2024/01/10 17:19:26;;;;;;;29.02;14.98;;;;;;;2.18;41.44;101322.53;7765346;32;39385;-81
2024/01/10 17:23:42;;;;;;;40.63;19.98;;;;;;;1.91;42.63;101323.88;7764994;32;39991;-82
2024/01/10 17:27:58;;;;;;;38.15;18.40;;;;;;;2.18;42.34;101322.53;7765115;32;37993;-81
2024/01/10 17:32:15;;;;;;;34.15;19.05;;;;;;;1.87;43.88;101325.25;7764589;32;37915;-80
2024/01/10 17:36:36;;;;;;;38.83;18.52;;;;;;;1.53;44.83;101325.59;7765067;32;39846;-80
2024/01/10 17:40:54;;;;;;;36.83;20.08;;;;;;;1.60;44.99;101323.88;7764917;32;39930;-81
2024/01/10 17:45:10;;;;;;;39.83;21.98;;;;;;;1.82;44.60;101316.88;7764823;32;36778;-81
2024/01/10 17:49:27;;;;;;;37.90;19.98;;;;;;;1.76;45.13;101315.72;7765010;32;37306;-80
2024/01/10 17:53:43;;;;;;;38.38;21.27;;;;;;;1.62;45.66;101305.72;7764837;32;40015;-81
2024/01/10 17:57:59;;;;;;;41.25;21.85;;;;;;;1.39;46.40;101308.34;7764743;32;40494;-81
2024/01/10 18:02:15;;;;;;;37.03;19.35;;;;;;;1.38;46.40;101302.13;7764539;32;38650;-80
2024/01/10 18:06:32;;;;;;;32.35;16.87;;;;;;;1.44;46.51;101298.75;7764292;32;37348;-81
2024/01/10 18:10:51;;;;;;;29.70;16.98;;;;;;;1.25;46.70;101305.34;7764290;32;39280;-81
2024/01/10 18:15:08;;;;;;;27.37;14.77;;;;;;;1.22;46.54;101294.13;7764219;32;39696;-80
2024/01/10 18:19:24;;;;;;;28.02;14.07;;;;;;;0.88;47.09;101289.84;7764074;32;38005;-81
2024/01/10 18:23:41;;;;;;;29.55;14.40;;;;;;;1.11;46.13;101287.28;7763669;32;37423;-81
2024/01/10 18:27:57;;;;;;;28.90;15.48;;;;;;;1.23;45.88;101291.28;7763924;32;39056;-80
2024/01/10 18:32:13;;;;;;;28.95;16.52;;;;;;;1.15;46.12;101291.28;7763695;32;39770;-80
2024/01/10 18:36:30;;;;;;;32.40;15.15;;;;;;;0.88;46.71;101279.97;7763681;32;37920;-81
2024/01/10 18:40:47;;;;;;;27.20;14.60;;;;;;;0.97;46.32;101280.78;7763547;32;37837;-82
2024/01/10 18:45:04;;;;;;;25.88;13.57;;;;;;;1.06;45.98;101285.09;7764789;32;39325;-80
2024/01/10 18:49:20;;;;;;;29.15;16.10;;;;;;;0.84;46.33;101285.84;7766830;32;39971;-82
2024/01/10 18:53:36;;;;;;;26.23;14.77;;;;;;;0.64;46.74;101280.84;7767096;32;36222;-81
2024/01/10 18:57:53;;;;;;;33.50;15.38;;;;;;;0.70;46.68;101272.09;7766785;32;37958;-81
2024/01/10 19:02:09;;;;;;;25.62;14.48;;;;;;;0.67;47.16;101269.78;7766746;32;39950;-81
2024/01/10 19:06:25;;;;;;;23.80;13.07;;;;;;;0.40;47.41;101276.34;7766603;32;40952;-81
2024/01/10 19:10:42;;;;;;;21.67;12.50;;;;;;;0.45;47.21;101265.09;7766762;32;38702;-81
2024/01/10 19:14:58;;;;;;;27.73;13.60;;;;;;;0.37;47.07;101269.47;7766564;32;37083;-82
2024/01/10 19:19:15;;;;;;;24.20;14.43;;;;;;;0.28;47.28;101267.78;7766537;32;39623;-81
2024/01/10 19:23:31;;;;;;;23.90;14.00;;;;;;;0.26;47.89;101271.63;7766322;32;39723;-81
2024/01/10 19:27:49;;;;;;;20.37;12.18;;;;;;;0.28;47.68;101277.69;7766261;32;38775;-81
2024/01/10 19:32:06;;;;;;;22.17;13.02;;;;;;;0.14;47.62;101271.16;7766359;32;38080;-81
2024/01/10 19:36:22;;;;;;;22.77;12.65;;;;;;;0.04;47.93;101278.53;7766354;32;40002;-82
2024/01/10 19:40:43;;;;;;;26.25;13.32;;;;;;;0.15;47.46;101270.13;7785504;32;40936;-81
2024/01/10 19:44:59;;;;;;;21.75;11.27;;;;;;;0.28;47.10;101280.38;7793339;32;38075;-80